createdAt,value
2023-05-25T00:03:04.542Z,7.71
2023-05-25T00:07:07.413Z,7.45
2023-05-25T00:11:10.072Z,7.57
2023-05-25T00:15:14.306Z,7.23
2023-05-25T00:19:18.554Z,7.53
2023-05-25T00:23:21.395Z,6.94
2023-05-25T00:27:24.585Z,7.17
2023-05-25T00:31:29.768Z,7.00
2023-05-25T00:35:32.543Z,7.12
2023-05-25T00:39:35.256Z,6.93
2023-05-25T00:43:37.926Z,6.93
2023-05-25T00:47:42.574Z,6.99
2023-05-25T00:51:46.605Z,6.59
2023-05-25T00:55:51.929Z,6.91
2023-05-25T00:59:55.280Z,6.43
2023-05-25T01:04:00.460Z,6.17
2023-05-25T01:08:04.497Z,6.48
2023-05-25T01:12:07.167Z,6.42
2023-05-25T01:16:10.721Z,6.25
2023-05-25T01:20:15.784Z,6.27
2023-05-25T01:24:25.958Z,6.04
2023-05-25T01:28:29.402Z,6.80
2023-05-25T01:32:33.323Z,6.27
2023-05-25T01:36:35.836Z,6.94
2023-05-25T01:40:39.851Z,6.96
2023-05-25T01:44:42.646Z,7.05
2023-05-25T01:48:53.227Z,7.20
2023-05-25T01:53:00.103Z,7.36
2023-05-25T01:57:08.114Z,7.29
2023-05-25T02:01:11.202Z,7.36
2023-05-25T02:05:14.361Z,7.34
2023-05-25T02:09:17.295Z,7.53
2023-05-25T02:13:21.492Z,7.69
2023-05-25T02:17:28.712Z,7.50
2023-05-25T02:21:31.616Z,7.03
2023-05-25T02:25:34.337Z,6.81
2023-05-25T02:29:38.325Z,7.16
2023-05-25T02:33:40.980Z,6.73
2023-05-25T02:37:43.684Z,6.86
2023-05-25T02:41:46.348Z,6.96
2023-05-25T02:45:50.542Z,6.78
2023-05-25T02:49:53.193Z,6.69
2023-05-25T02:53:55.927Z,6.81
2023-05-25T02:57:59.972Z,6.69
2023-05-25T03:02:03.998Z,6.65
2023-05-25T03:06:07.641Z,7.04
2023-05-25T03:10:10.872Z,6.99
2023-05-25T03:14:13.808Z,6.94
2023-05-25T03:18:18.120Z,7.06
2023-05-25T03:22:20.827Z,6.90
2023-05-25T03:26:25.824Z,6.85
2023-05-25T03:30:29.663Z,6.82
2023-05-25T03:34:35.316Z,6.71
2023-05-25T03:38:38.124Z,6.46
2023-05-25T03:42:40.942Z,6.47
2023-05-25T03:46:43.789Z,6.71
2023-05-25T03:50:47.902Z,6.42
2023-05-25T03:54:50.664Z,6.20
2023-05-25T03:58:53.759Z,6.52
2023-05-25T04:02:57.004Z,6.13
2023-05-25T04:07:01.607Z,6.01
2023-05-25T04:11:04.261Z,6.25
2023-05-25T04:15:09.515Z,6.36
2023-05-25T04:19:12.314Z,6.23
2023-05-25T04:23:16.933Z,6.38
2023-05-25T04:27:20.466Z,6.05
2023-05-25T04:31:24.987Z,6.30
2023-05-25T04:35:28.384Z,6.19
2023-05-25T04:39:32.797Z,6.51
2023-05-25T04:43:35.553Z,6.87
2023-05-25T04:47:41.065Z,6.69
2023-05-25T04:51:43.974Z,7.15
2023-05-25T04:55:49.326Z,7.47
2023-05-25T04:59:51.974Z,7.37
2023-05-25T05:03:54.684Z,7.57
2023-05-25T05:07:57.972Z,8.04
2023-05-25T05:12:02.963Z,8.11
2023-05-25T05:16:06.577Z,9.67
2023-05-25T05:20:10.260Z,11.66
2023-05-25T05:24:12.794Z,11.82
2023-05-25T05:28:16.806Z,10.84
2023-05-25T05:32:19.601Z,10.52
2023-05-25T05:36:22.249Z,11.69
2023-05-25T05:40:26.186Z,11.98
2023-05-25T05:44:30.461Z,11.96
2023-05-25T05:48:33.182Z,11.81
2023-05-25T05:52:35.864Z,11.52
2023-05-25T05:56:38.552Z,11.85
2023-05-25T06:00:42.558Z,12.61
2023-05-25T06:04:45.698Z,12.49
2023-05-25T06:08:48.384Z,13.06
2023-05-25T06:12:51.061Z,15.19
2023-05-25T06:16:55.359Z,15.66
2023-05-25T06:20:58.071Z,17.31
2023-05-25T06:25:04.081Z,16.43
2023-05-25T06:29:06.932Z,15.46
2023-05-25T06:33:11.087Z,13.66
2023-05-25T06:37:14.902Z,14.54
2023-05-25T06:41:19.063Z,13.93
2023-05-25T06:45:22.300Z,14.21
2023-05-25T06:49:26.360Z,13.89
2023-05-25T06:53:29.020Z,14.31
2023-05-25T06:57:31.687Z,14.23
2023-05-25T07:01:34.371Z,14.80
2023-05-25T07:05:38.871Z,14.71
2023-05-25T07:09:41.669Z,14.79
2023-05-25T07:13:44.385Z,15.14
2023-05-25T07:17:47.399Z,15.06
2023-05-25T07:21:51.338Z,15.54
2023-05-25T07:25:54.016Z,15.01
2023-05-25T07:29:56.716Z,15.45
2023-05-25T07:33:59.348Z,15.13
2023-05-25T07:38:04.729Z,15.69
2023-05-25T07:42:07.733Z,15.66
2023-05-25T07:46:10.296Z,16.29
2023-05-25T07:50:12.984Z,15.72
2023-05-25T07:54:17.066Z,15.75
2023-05-25T07:58:19.753Z,15.59
2023-05-25T08:02:22.466Z,15.46
2023-05-25T08:06:25.256Z,15.58
2023-05-25T08:10:32.355Z,16.13
2023-05-25T08:14:35.088Z,15.37
2023-05-25T08:18:37.746Z,15.61
2023-05-25T08:22:40.633Z,15.70
2023-05-25T08:30:55.525Z,15.83
2023-05-25T08:34:58.308Z,16.26
2023-05-25T08:39:01.203Z,16.49
2023-05-25T08:43:05.208Z,16.81
2023-05-25T08:47:08.486Z,16.50
2023-05-25T08:51:12.426Z,16.93
2023-05-25T08:55:16.153Z,16.97
2023-05-25T08:59:30.277Z,17.45
2023-05-25T09:03:34.108Z,17.02
2023-05-25T09:07:37.338Z,17.65
2023-05-25T09:11:42.786Z,18.00
2023-05-25T09:15:48.353Z,16.77
2023-05-25T09:19:51.107Z,17.68
2023-05-25T09:23:53.606Z,17.62
2023-05-25T09:27:58.772Z,18.49
2023-05-25T09:32:05.894Z,17.98
2023-05-25T09:36:08.923Z,18.01
2023-05-25T09:40:12.806Z,19.02
2023-05-25T09:44:16.108Z,18.16
2023-05-25T09:48:21.409Z,19.29
2023-05-25T09:52:24.869Z,19.42
2023-05-25T09:56:28.073Z,19.09
2023-05-25T10:00:31.244Z,19.93
2023-05-25T10:04:35.285Z,19.59
2023-05-25T10:08:38.064Z,19.87
2023-05-25T10:12:42.612Z,20.05
2023-05-25T10:16:50.407Z,19.64
2023-05-25T10:21:00.615Z,19.49
2023-05-25T10:25:09.299Z,19.14
2023-05-25T10:29:11.991Z,19.22
2023-05-25T10:33:14.669Z,19.15
2023-05-25T10:37:19.647Z,19.75
2023-05-25T10:41:23.029Z,18.93
2023-05-25T10:45:26.015Z,19.67
2023-05-25T10:49:33.450Z,19.28
2023-05-25T10:53:37.659Z,19.76
2023-05-25T10:57:40.348Z,19.22
2023-05-25T11:01:51.159Z,19.17
2023-05-25T11:05:53.886Z,19.10
2023-05-25T11:09:59.177Z,19.67
2023-05-25T11:14:03.027Z,18.84
2023-05-25T11:18:06.018Z,19.35
2023-05-25T11:22:14.796Z,19.68
2023-05-25T11:26:21.951Z,19.09
2023-05-25T11:30:28.916Z,19.80
2023-05-25T11:34:33.174Z,19.85
2023-05-25T11:38:37.600Z,19.46
2023-05-25T11:42:43.170Z,20.13
2023-05-25T11:46:48.648Z,20.65
2023-05-25T11:51:05.476Z,20.80
2023-05-25T11:55:14.338Z,20.46
2023-05-25T11:59:18.435Z,20.67
2023-05-25T12:03:31.171Z,20.65
2023-05-25T12:07:34.303Z,20.61
2023-05-25T12:11:38.801Z,20.59
2023-05-25T12:15:44.542Z,20.60
2023-05-25T12:19:47.506Z,20.11
2023-05-25T12:23:50.868Z,20.61
2023-05-25T12:28:11.464Z,20.47
2023-05-25T12:32:15.903Z,19.86
2023-05-25T12:36:18.919Z,20.42
2023-05-25T12:40:24.586Z,19.88
2023-05-25T12:44:31.296Z,20.99
2023-05-25T12:48:35.746Z,20.35
2023-05-25T12:52:39.474Z,20.53
2023-05-25T12:56:55.165Z,20.29
2023-05-25T13:00:57.925Z,19.98
2023-05-25T13:05:02.042Z,20.20
2023-05-25T13:09:05.204Z,20.52
2023-05-25T13:13:07.948Z,20.82
2023-05-25T13:17:10.653Z,20.80
2023-05-25T13:21:14.513Z,21.05
2023-05-25T13:25:17.411Z,20.87
2023-05-25T13:29:20.148Z,20.46
2023-05-25T13:33:22.800Z,21.04
2023-05-25T13:37:27.646Z,20.65
2023-05-25T13:41:31.648Z,20.87
2023-05-25T13:45:34.439Z,20.91
2023-05-25T13:49:37.087Z,20.89
2023-05-25T13:53:41.223Z,21.35
2023-05-25T13:57:43.859Z,22.03
2023-05-25T14:01:46.712Z,21.61
2023-05-25T14:05:49.651Z,21.16
2023-05-25T14:09:53.717Z,20.43
2023-05-25T14:13:56.391Z,20.94
2023-05-25T14:17:59.076Z,20.97
2023-05-25T14:22:12.532Z,21.16
2023-05-25T14:26:18.456Z,21.44
2023-05-25T14:30:21.277Z,21.09
2023-05-25T14:34:23.923Z,20.85
2023-05-25T14:38:26.582Z,21.20
2023-05-25T14:42:30.794Z,21.57
2023-05-25T14:46:34.336Z,21.35
2023-05-25T14:50:37.043Z,20.97
2023-05-25T14:54:44.652Z,21.12
2023-05-25T14:58:48.837Z,20.98
2023-05-25T15:02:51.676Z,21.38
2023-05-25T15:06:54.312Z,21.13
2023-05-25T15:10:57.500Z,21.04
2023-05-25T15:15:01.489Z,21.05
2023-05-25T15:19:04.252Z,21.34
2023-05-25T15:23:06.893Z,21.16
2023-05-25T15:27:09.700Z,21.32
2023-05-25T15:31:13.753Z,21.21
2023-05-25T15:35:16.441Z,21.17
2023-05-25T15:39:19.131Z,20.67
2023-05-25T15:43:21.860Z,20.80
2023-05-25T15:47:26.047Z,20.61
2023-05-25T15:51:28.801Z,20.64
2023-05-25T15:55:31.387Z,20.70
2023-05-25T15:59:34.118Z,20.54
2023-05-25T16:03:38.217Z,20.73
2023-05-25T16:07:41.021Z,20.51
2023-05-25T16:11:43.973Z,20.29
2023-05-25T16:15:47.234Z,20.32
2023-05-25T16:19:51.669Z,20.56
2023-05-25T16:23:54.675Z,20.51
2023-05-25T16:27:57.379Z,20.37
2023-05-25T16:32:00.133Z,20.31
2023-05-25T16:36:04.299Z,20.38
2023-05-25T16:40:08.216Z,20.31
2023-05-25T16:44:11.563Z,20.14
2023-05-25T16:48:14.283Z,20.23
2023-05-25T16:52:18.739Z,20.04
2023-05-25T16:56:21.791Z,19.82
2023-05-25T17:00:24.662Z,20.28
2023-05-25T17:04:27.152Z,20.05
2023-05-25T17:08:31.395Z,19.77
2023-05-25T17:12:34.055Z,19.97
2023-05-25T17:16:36.750Z,19.76
2023-05-25T17:20:39.583Z,19.59
2023-05-25T17:24:43.701Z,18.90
2023-05-25T17:28:46.389Z,19.10
2023-05-25T17:32:49.153Z,18.87
2023-05-25T17:36:51.974Z,19.19
2023-05-25T17:40:56.215Z,18.49
2023-05-25T17:44:58.971Z,18.06
2023-05-25T17:49:01.726Z,18.21
2023-05-25T17:53:04.444Z,17.95
2023-05-25T17:57:08.649Z,17.72
2023-05-25T18:01:11.450Z,17.55
2023-05-25T18:05:14.237Z,17.61
2023-05-25T18:09:16.906Z,17.34
2023-05-25T18:13:21.032Z,17.83
2023-05-25T18:17:23.760Z,17.27
2023-05-25T18:21:26.530Z,17.27
2023-05-25T18:25:29.229Z,17.00
2023-05-25T18:29:33.401Z,16.78
2023-05-25T18:33:36.251Z,16.78
2023-05-25T18:37:39.062Z,16.49
2023-05-25T18:41:42.581Z,16.18
2023-05-25T18:45:46.835Z,16.18
2023-05-25T18:49:49.561Z,16.03
2023-05-25T18:53:52.437Z,15.32
2023-05-25T18:57:55.088Z,15.52
2023-05-25T19:01:59.145Z,15.37
2023-05-25T19:06:01.837Z,15.15
2023-05-25T19:10:05.014Z,15.23
2023-05-25T19:14:07.529Z,15.07
2023-05-25T19:18:11.625Z,14.96
2023-05-25T19:22:14.305Z,14.38
2023-05-25T19:26:17.241Z,14.30
2023-05-25T19:30:19.899Z,13.91
2023-05-25T19:34:23.881Z,13.54
2023-05-25T19:38:28.818Z,13.49
2023-05-25T19:42:37.150Z,13.44
2023-05-25T19:46:41.188Z,13.30
2023-05-25T19:50:45.273Z,13.32
2023-05-25T19:54:48.590Z,13.31
2023-05-25T19:58:52.315Z,13.42
2023-05-25T20:02:55.080Z,13.55
2023-05-25T20:06:59.273Z,13.24
2023-05-25T20:11:01.899Z,13.39
2023-05-25T20:15:04.986Z,13.41
2023-05-25T20:19:10.976Z,13.26
2023-05-25T20:23:14.971Z,13.43
2023-05-25T20:27:17.931Z,13.50
2023-05-25T20:31:20.591Z,12.90
2023-05-25T20:35:23.251Z,13.12
2023-05-25T20:39:27.374Z,13.12
2023-05-25T20:43:30.024Z,13.07
2023-05-25T20:47:32.781Z,13.18
2023-05-25T20:51:36.018Z,13.29
2023-05-25T20:55:39.997Z,13.30
2023-05-25T20:59:42.888Z,12.71
2023-05-25T21:03:45.937Z,13.45
2023-05-25T21:07:48.674Z,12.94
2023-05-25T21:11:52.705Z,12.80
2023-05-25T21:15:55.870Z,13.29
2023-05-25T21:19:58.972Z,12.98
2023-05-25T21:24:02.181Z,12.94
2023-05-25T21:28:06.900Z,13.25
2023-05-25T21:32:09.910Z,12.87
2023-05-25T21:36:12.570Z,13.01
2023-05-25T21:40:15.653Z,12.80
2023-05-25T21:44:19.668Z,12.61
2023-05-25T21:48:22.358Z,12.55
2023-05-25T21:52:25.248Z,12.54
2023-05-25T21:56:28.084Z,12.41
2023-05-25T22:00:35.195Z,12.35
2023-05-25T22:04:38.057Z,12.66
2023-05-25T22:08:41.161Z,12.47
2023-05-25T22:12:44.292Z,12.00
2023-05-25T22:16:48.554Z,12.09
2023-05-25T22:20:51.288Z,12.07
2023-05-25T22:24:54.059Z,12.01
2023-05-25T22:28:56.715Z,11.88
2023-05-25T22:33:00.837Z,11.59
2023-05-25T22:37:03.502Z,11.75
2023-05-25T22:41:06.279Z,11.68
2023-05-25T22:45:10.831Z,11.60
2023-05-25T22:49:14.856Z,11.40
2023-05-25T22:53:17.634Z,11.17
2023-05-25T22:57:20.690Z,11.39
2023-05-25T23:01:23.387Z,11.05
2023-05-25T23:05:27.446Z,10.78
2023-05-25T23:09:30.096Z,11.04
2023-05-25T23:13:32.732Z,10.98
2023-05-25T23:17:35.496Z,10.83
2023-05-25T23:21:39.598Z,11.17
2023-05-25T23:25:42.326Z,10.45
2023-05-25T23:29:45.094Z,10.82
2023-05-25T23:33:47.753Z,10.27
2023-05-25T23:37:52.061Z,10.38
2023-05-25T23:41:55.137Z,10.26
2023-05-25T23:45:57.850Z,10.24
2023-05-25T23:50:00.642Z,10.28
2023-05-25T23:54:04.796Z,10.34
2023-05-25T23:58:08.065Z,10.09
